createdAt,value
2022-07-29T00:00:56.166Z,15.40
2022-07-29T00:02:57.967Z,15.45
2022-07-29T00:05:00.140Z,15.39
2022-07-29T00:07:02.140Z,15.25
2022-07-29T00:09:03.999Z,15.35
2022-07-29T00:11:05.775Z,15.15
2022-07-29T00:13:07.815Z,15.31
2022-07-29T00:15:09.735Z,15.20
2022-07-29T00:17:11.436Z,15.01
2022-07-29T00:19:13.330Z,15.03
2022-07-29T00:21:15.094Z,14.97
2022-07-29T00:23:16.823Z,14.87
2022-07-29T00:25:18.878Z,14.06
2022-07-29T00:27:20.606Z,14.75
2022-07-29T00:29:37.633Z,14.59
2022-07-29T00:31:39.675Z,14.70
2022-07-29T00:33:41.433Z,14.60
2022-07-29T00:35:43.221Z,14.72
2022-07-29T00:37:45.101Z,14.80
2022-07-29T00:39:46.859Z,14.72
2022-07-29T00:41:48.766Z,14.80
2022-07-29T00:43:50.848Z,14.69
2022-07-29T00:45:52.633Z,14.91
2022-07-29T00:47:54.416Z,14.90
2022-07-29T00:49:56.402Z,14.93
2022-07-29T00:51:58.635Z,14.88
2022-07-29T00:54:00.451Z,15.05
2022-07-29T00:56:02.485Z,15.07
2022-07-29T00:58:04.715Z,15.02
2022-07-29T01:00:08.740Z,14.88
2022-07-29T01:02:11.078Z,14.79
2022-07-29T01:04:13.234Z,14.61
2022-07-29T01:06:19.166Z,14.62
2022-07-29T01:08:21.996Z,14.60
2022-07-29T01:10:24.613Z,14.59
2022-07-29T01:12:28.258Z,14.55
2022-07-29T01:14:30.336Z,14.48
2022-07-29T01:16:35.012Z,14.42
2022-07-29T01:18:43.310Z,14.39
2022-07-29T01:21:04.016Z,14.43
2022-07-29T01:23:12.342Z,14.37
2022-07-29T01:25:29.415Z,14.37
2022-07-29T01:27:48.857Z,14.13
2022-07-29T01:29:56.397Z,14.29
2022-07-29T01:32:08.392Z,14.25
2022-07-29T01:34:31.142Z,14.30
2022-07-29T01:36:46.574Z,14.29
2022-07-29T01:38:57.768Z,14.26
2022-07-29T01:41:17.944Z,14.29
2022-07-29T01:43:32.386Z,14.13
2022-07-29T01:45:42.913Z,14.13
2022-07-29T01:48:15.988Z,14.29
2022-07-29T01:50:21.678Z,14.12
2022-07-29T01:52:40.697Z,14.43
2022-07-29T01:54:52.673Z,14.54
2022-07-29T01:56:57.781Z,14.58
2022-07-29T01:59:00.027Z,14.64
2022-07-29T02:01:04.000Z,14.69
2022-07-29T02:03:08.549Z,14.69
2022-07-29T02:05:11.646Z,14.68
2022-07-29T02:07:19.242Z,14.53
2022-07-29T02:09:23.005Z,14.69
2022-07-29T02:11:24.603Z,14.58
2022-07-29T02:13:28.969Z,14.64
2022-07-29T02:15:34.057Z,14.56
2022-07-29T02:17:43.507Z,14.65
2022-07-29T02:19:46.945Z,14.46
2022-07-29T02:21:50.079Z,14.56
2022-07-29T02:23:53.475Z,14.65
2022-07-29T02:25:57.966Z,14.75
2022-07-29T02:28:00.758Z,14.64
2022-07-29T02:30:05.041Z,14.63
2022-07-29T02:32:11.692Z,14.63
2022-07-29T02:34:16.305Z,14.62
2022-07-29T02:36:24.483Z,14.57
2022-07-29T02:38:28.340Z,14.66
2022-07-29T02:40:30.206Z,14.85
2022-07-29T02:42:33.372Z,14.82
2022-07-29T02:44:35.918Z,14.72
2022-07-29T02:46:42.851Z,14.68
2022-07-29T02:49:05.362Z,14.70
2022-07-29T02:51:13.270Z,14.55
2022-07-29T02:53:36.564Z,14.57
2022-07-29T02:56:00.066Z,14.59
2022-07-29T02:58:14.592Z,14.46
2022-07-29T03:00:17.135Z,14.57
2022-07-29T03:02:20.560Z,14.63
2022-07-29T03:04:24.698Z,14.63
2022-07-29T03:06:38.020Z,14.66
2022-07-29T03:08:41.205Z,14.58
2022-07-29T03:10:46.492Z,14.67
2022-07-29T03:12:49.743Z,14.68
2022-07-29T03:14:52.533Z,14.63
2022-07-29T03:16:55.052Z,14.70
2022-07-29T03:18:57.554Z,14.69
2022-07-29T03:20:59.642Z,14.79
2022-07-29T03:23:01.608Z,14.80
2022-07-29T03:25:13.905Z,14.78
2022-07-29T03:27:15.720Z,14.79
2022-07-29T03:29:17.934Z,14.81
2022-07-29T03:31:21.837Z,14.76
2022-07-29T03:33:23.633Z,14.77
2022-07-29T03:35:25.737Z,14.82
2022-07-29T03:37:27.512Z,14.73
2022-07-29T03:39:34.287Z,14.69
2022-07-29T03:41:39.092Z,14.75
2022-07-29T03:43:49.615Z,14.81
2022-07-29T03:45:55.540Z,14.92
2022-07-29T03:48:06.710Z,14.90
2022-07-29T03:50:11.589Z,14.80
2022-07-29T03:52:13.688Z,14.59
2022-07-29T03:54:16.122Z,14.74
2022-07-29T03:56:22.039Z,15.02
2022-07-29T03:58:26.293Z,14.77
2022-07-29T04:00:28.920Z,15.01
2022-07-29T04:02:31.507Z,15.06
2022-07-29T04:04:36.865Z,14.99
2022-07-29T04:06:48.348Z,15.17
2022-07-29T04:08:50.257Z,15.17
2022-07-29T04:10:52.067Z,15.20
2022-07-29T04:12:54.121Z,15.12
2022-07-29T04:14:55.857Z,15.40
2022-07-29T04:16:57.651Z,15.55
2022-07-29T04:19:00.334Z,15.55
2022-07-29T04:21:02.226Z,15.52
2022-07-29T04:23:04.014Z,15.68
2022-07-29T04:25:06.484Z,15.81
2022-07-29T04:27:08.244Z,15.77
2022-07-29T04:29:10.324Z,15.81
2022-07-29T04:31:12.926Z,16.07
2022-07-29T04:33:14.722Z,16.18
2022-07-29T04:35:16.440Z,16.24
2022-07-29T04:37:18.531Z,16.43
2022-07-29T04:39:22.956Z,16.53
2022-07-29T04:41:32.655Z,16.61
2022-07-29T04:43:37.038Z,16.69
2022-07-29T04:45:38.715Z,16.78
2022-07-29T04:47:40.504Z,16.95
2022-07-29T04:49:42.785Z,17.13
2022-07-29T04:51:44.627Z,17.25
2022-07-29T04:53:46.323Z,17.35
2022-07-29T04:55:48.346Z,17.55
2022-07-29T04:57:50.379Z,17.47
2022-07-29T04:59:52.089Z,17.21
2022-07-29T05:01:54.092Z,17.04
2022-07-29T05:04:00.148Z,17.16
2022-07-29T05:06:02.346Z,17.31
2022-07-29T05:08:04.687Z,17.35
2022-07-29T05:10:06.729Z,17.25
2022-07-29T05:12:08.750Z,17.45
2022-07-29T05:14:10.998Z,17.65
2022-07-29T05:16:13.098Z,17.37
2022-07-29T05:18:14.894Z,17.56
2022-07-29T05:20:16.894Z,17.76
2022-07-29T05:22:20.334Z,17.85
2022-07-29T05:24:22.071Z,17.97
2022-07-29T05:26:23.958Z,17.79
2022-07-29T05:28:25.759Z,17.78
2022-07-29T05:30:27.492Z,17.99
2022-07-29T05:32:29.479Z,17.93
2022-07-29T05:34:31.471Z,17.88
2022-07-29T05:36:33.193Z,17.96
2022-07-29T05:38:36.356Z,18.03
2022-07-29T05:40:38.184Z,18.00
2022-07-29T05:42:39.958Z,18.15
2022-07-29T05:44:41.910Z,18.29
2022-07-29T05:46:43.937Z,18.76
2022-07-29T05:48:46.628Z,18.70
2022-07-29T05:50:48.653Z,18.78
2022-07-29T05:52:50.397Z,19.18
2022-07-29T05:54:52.191Z,18.89
2022-07-29T05:56:54.125Z,18.63
2022-07-29T05:58:55.981Z,19.02
2022-07-29T06:00:57.726Z,19.23
2022-07-29T06:02:59.744Z,19.35
2022-07-29T06:05:01.699Z,19.15
2022-07-29T06:07:03.882Z,19.56
2022-07-29T06:09:12.126Z,19.98
2022-07-29T06:11:14.884Z,19.95
2022-07-29T06:13:16.635Z,19.86
2022-07-29T06:15:18.499Z,20.27
2022-07-29T06:17:20.341Z,20.41
2022-07-29T06:19:22.227Z,21.10
2022-07-29T06:21:24.118Z,20.94
2022-07-29T06:23:25.965Z,21.55
2022-07-29T06:25:28.575Z,22.08
2022-07-29T06:27:30.474Z,22.57
2022-07-29T06:29:32.449Z,23.14
2022-07-29T06:31:34.215Z,23.52
2022-07-29T06:33:36.151Z,23.96
2022-07-29T06:35:41.769Z,23.83
2022-07-29T06:37:44.329Z,24.05
2022-07-29T06:39:48.469Z,23.80
2022-07-29T06:41:51.264Z,23.15
2022-07-29T06:43:55.338Z,23.51
2022-07-29T06:46:09.342Z,23.24
2022-07-29T06:48:11.329Z,23.58
2022-07-29T06:50:13.095Z,23.62
2022-07-29T06:52:15.030Z,23.93
2022-07-29T06:54:17.407Z,24.24
2022-07-29T06:56:19.284Z,24.16
2022-07-29T06:58:21.186Z,24.46
2022-07-29T07:00:23.453Z,23.96
2022-07-29T07:02:25.413Z,23.85
2022-07-29T07:04:27.418Z,23.96
2022-07-29T07:06:29.293Z,24.39
2022-07-29T07:08:31.092Z,24.22
2022-07-29T07:10:33.867Z,23.58
2022-07-29T07:12:35.896Z,24.27
2022-07-29T07:14:37.664Z,24.69
2022-07-29T07:16:39.771Z,24.90
2022-07-29T07:18:41.679Z,25.06
2022-07-29T07:20:43.561Z,23.95
2022-07-29T07:22:45.382Z,24.78
2022-07-29T07:24:47.301Z,25.36
2022-07-29T07:26:49.032Z,25.94
2022-07-29T07:28:51.016Z,25.70
2022-07-29T07:30:53.346Z,26.10
2022-07-29T07:32:56.035Z,26.10
2022-07-29T07:34:57.841Z,25.66
2022-07-29T07:37:00.972Z,25.38
2022-07-29T07:39:02.892Z,26.01
2022-07-29T07:41:05.499Z,24.92
2022-07-29T07:43:07.381Z,25.49
2022-07-29T07:45:15.839Z,25.70
2022-07-29T07:47:18.871Z,25.62
2022-07-29T07:49:20.864Z,25.29
2022-07-29T07:51:22.610Z,25.03
2022-07-29T07:53:24.429Z,24.99
2022-07-29T07:55:27.171Z,25.23
2022-07-29T07:57:28.918Z,25.66
2022-07-29T07:59:31.382Z,26.00
2022-07-29T08:01:49.976Z,26.43
2022-07-29T08:03:54.975Z,26.78
2022-07-29T08:05:56.862Z,26.67
2022-07-29T08:07:58.644Z,26.88
2022-07-29T08:10:00.448Z,26.38
2022-07-29T08:12:02.708Z,25.53
2022-07-29T08:14:04.521Z,25.50
2022-07-29T08:16:06.880Z,25.77
2022-07-29T08:18:09.075Z,25.58
2022-07-29T08:20:11.262Z,25.54
2022-07-29T08:22:12.997Z,25.49
2022-07-29T08:24:14.741Z,26.11
2022-07-29T08:26:16.699Z,26.07
2022-07-29T08:28:18.720Z,25.24
2022-07-29T08:30:20.496Z,25.30
2022-07-29T08:32:43.504Z,25.48
2022-07-29T08:34:44.097Z,24.23
2022-07-29T08:36:45.858Z,25.20
2022-07-29T08:38:52.823Z,25.41
2022-07-29T08:40:54.649Z,25.13
2022-07-29T08:42:56.653Z,25.35
2022-07-29T08:44:59.521Z,25.14
2022-07-29T08:47:01.409Z,24.74
2022-07-29T08:49:03.529Z,24.27
2022-07-29T08:51:08.521Z,24.23
2022-07-29T08:53:14.669Z,24.70
2022-07-29T08:55:17.114Z,25.39
2022-07-29T08:57:24.181Z,25.52
2022-07-29T08:59:31.325Z,25.75
2022-07-29T09:01:35.985Z,25.53
2022-07-29T09:03:45.518Z,24.98
2022-07-29T09:05:48.708Z,24.85
2022-07-29T09:07:50.934Z,24.99
2022-07-29T09:09:52.865Z,24.79
2022-07-29T09:11:58.903Z,25.08
2022-07-29T09:14:00.758Z,25.60
2022-07-29T09:16:07.064Z,25.47
2022-07-29T09:18:19.761Z,25.59
2022-07-29T09:20:32.249Z,25.90
2022-07-29T09:22:36.682Z,25.68
2022-07-29T09:24:48.376Z,25.22
2022-07-29T09:26:50.189Z,25.01
2022-07-29T09:28:52.173Z,25.00
2022-07-29T09:30:56.187Z,25.46
2022-07-29T09:32:59.998Z,25.29
2022-07-29T09:35:25.819Z,25.57
2022-07-29T09:37:29.139Z,25.77
2022-07-29T09:39:38.192Z,25.84
2022-07-29T09:41:50.511Z,25.65
2022-07-29T09:43:56.871Z,25.76
2022-07-29T09:46:12.317Z,25.26
2022-07-29T09:48:16.867Z,24.99
2022-07-29T09:50:18.827Z,24.87
2022-07-29T09:52:22.751Z,24.68
2022-07-29T09:54:26.108Z,24.98
2022-07-29T09:56:43.587Z,24.68
2022-07-29T09:58:45.360Z,24.93
2022-07-29T10:00:51.460Z,24.98
2022-07-29T10:03:01.209Z,25.00
2022-07-29T10:05:05.683Z,24.73
2022-07-29T10:07:07.702Z,24.88
2022-07-29T10:09:11.350Z,24.57
2022-07-29T10:11:18.376Z,24.41
2022-07-29T10:13:20.423Z,24.19
2022-07-29T10:15:26.126Z,24.41
2022-07-29T10:17:28.085Z,24.05
2022-07-29T10:19:31.413Z,24.56
2022-07-29T10:21:35.849Z,24.22
2022-07-29T10:23:46.922Z,24.69
2022-07-29T10:25:49.417Z,24.80
2022-07-29T10:27:52.002Z,24.52
2022-07-29T10:29:55.181Z,24.47
2022-07-29T10:32:06.021Z,24.83
2022-07-29T10:34:35.585Z,25.30
2022-07-29T10:37:25.717Z,25.23
2022-07-29T10:39:45.243Z,25.51
2022-07-29T10:42:00.197Z,25.45
2022-07-29T10:44:07.912Z,25.60
2022-07-29T10:46:12.456Z,26.04
2022-07-29T10:48:14.962Z,26.28
2022-07-29T10:50:17.305Z,26.20
2022-07-29T10:52:19.354Z,26.07
2022-07-29T10:54:39.647Z,25.34
2022-07-29T10:56:44.586Z,24.87
2022-07-29T10:59:20.284Z,25.32
2022-07-29T11:01:37.397Z,25.43
2022-07-29T11:03:52.338Z,26.13
2022-07-29T11:05:56.444Z,25.23
2022-07-29T11:10:38.325Z,25.45
2022-07-29T11:12:43.522Z,25.89
2022-07-29T11:15:00.990Z,26.10
2022-07-29T11:17:06.080Z,26.34
2022-07-29T11:19:11.610Z,26.01
2022-07-29T11:21:54.114Z,25.91
2022-07-29T11:24:28.968Z,26.01
2022-07-29T11:26:31.313Z,26.09
2022-07-29T11:28:37.161Z,26.10
2022-07-29T11:30:55.026Z,25.88
2022-07-29T11:32:56.831Z,25.42
2022-07-29T11:35:19.171Z,25.17
2022-07-29T11:37:28.371Z,25.55
2022-07-29T11:39:37.059Z,25.69
2022-07-29T11:41:39.348Z,25.72
2022-07-29T11:46:10.626Z,26.32
2022-07-29T11:48:28.406Z,26.22
2022-07-29T11:50:38.166Z,26.13
2022-07-29T11:52:49.654Z,26.13
2022-07-29T11:54:58.149Z,26.01
2022-07-29T11:57:02.770Z,25.09
2022-07-29T11:59:08.498Z,25.21
2022-07-29T12:01:14.776Z,24.96
2022-07-29T12:05:51.831Z,25.59
2022-07-29T12:07:53.828Z,25.55
2022-07-29T12:09:56.963Z,25.63
2022-07-29T12:12:04.651Z,25.20
2022-07-29T12:14:07.250Z,25.48
2022-07-29T12:16:09.057Z,25.64
2022-07-29T12:18:18.987Z,25.85
2022-07-29T12:20:31.183Z,26.04
2022-07-29T12:22:38.808Z,26.01
2022-07-29T12:24:45.179Z,26.21
2022-07-29T12:26:50.853Z,25.71
2022-07-29T12:28:53.537Z,26.22
2022-07-29T12:30:56.545Z,25.96
2022-07-29T12:32:58.350Z,25.97
2022-07-29T12:35:03.032Z,25.98
2022-07-29T12:37:04.981Z,26.37
2022-07-29T12:39:06.929Z,26.25
2022-07-29T12:41:08.918Z,26.42
2022-07-29T12:43:22.207Z,26.82
2022-07-29T12:45:30.852Z,26.14
2022-07-29T12:47:33.838Z,26.47
2022-07-29T12:49:38.048Z,27.07
2022-07-29T12:51:41.009Z,27.01
2022-07-29T12:53:43.264Z,26.95
2022-07-29T12:55:47.771Z,26.83
2022-07-29T12:57:51.742Z,26.73
2022-07-29T13:00:09.892Z,26.90
2022-07-29T13:02:22.898Z,26.79
2022-07-29T13:04:32.750Z,27.17
2022-07-29T13:06:45.905Z,26.35
2022-07-29T13:09:00.340Z,26.42
2022-07-29T13:11:02.320Z,26.14
2022-07-29T13:13:09.548Z,25.96
2022-07-29T13:15:15.976Z,25.88
2022-07-29T13:17:23.274Z,26.18
2022-07-29T13:19:44.015Z,26.35
2022-07-29T13:21:46.590Z,26.46
2022-07-29T13:23:48.367Z,26.44
2022-07-29T13:25:51.247Z,26.11
2022-07-29T13:27:53.123Z,25.78
2022-07-29T13:29:57.108Z,26.04
2022-07-29T13:31:59.295Z,25.70
2022-07-29T13:34:01.338Z,25.85
2022-07-29T13:36:03.090Z,25.36
2022-07-29T13:38:04.898Z,25.46
2022-07-29T13:40:08.962Z,25.66
2022-07-29T13:42:11.227Z,25.51
2022-07-29T13:44:13.077Z,25.34
2022-07-29T13:46:14.948Z,25.64
2022-07-29T13:48:16.935Z,25.57
2022-07-29T13:50:18.986Z,25.78
2022-07-29T13:52:21.141Z,25.97
2022-07-29T13:54:23.297Z,25.58
2022-07-29T13:56:25.291Z,25.40
2022-07-29T13:58:27.245Z,25.35
2022-07-29T14:00:29.566Z,25.31
2022-07-29T14:02:31.545Z,25.35
2022-07-29T14:04:34.735Z,25.51
2022-07-29T14:06:36.641Z,25.31
2022-07-29T14:08:42.495Z,25.08
2022-07-29T14:10:44.610Z,25.44
2022-07-29T14:12:46.347Z,25.46
2022-07-29T14:14:48.249Z,25.94
2022-07-29T14:16:52.331Z,26.61
2022-07-29T14:18:54.291Z,26.93
2022-07-29T14:20:56.316Z,26.76
2022-07-29T14:22:58.074Z,26.30
2022-07-29T14:25:02.340Z,26.48
2022-07-29T14:27:17.276Z,26.57
2022-07-29T14:29:19.017Z,26.38
2022-07-29T14:31:20.785Z,26.11
2022-07-29T14:33:22.601Z,26.23
2022-07-29T14:35:24.433Z,26.13
2022-07-29T14:37:26.163Z,25.84
2022-07-29T14:39:31.693Z,25.86
2022-07-29T14:41:34.110Z,26.03
2022-07-29T14:43:36.041Z,26.43
2022-07-29T14:45:38.020Z,26.63
2022-07-29T14:47:40.582Z,26.47
2022-07-29T14:49:42.298Z,26.22
2022-07-29T14:51:44.170Z,26.68
2022-07-29T14:53:45.945Z,26.56
2022-07-29T14:55:47.684Z,26.68
2022-07-29T14:57:50.006Z,26.65
2022-07-29T14:59:52.416Z,26.58
2022-07-29T15:01:54.354Z,26.40
2022-07-29T15:03:59.674Z,26.27
2022-07-29T15:06:01.807Z,26.23
2022-07-29T15:08:04.299Z,26.12
2022-07-29T15:10:06.930Z,25.90
2022-07-29T15:12:10.123Z,25.73
2022-07-29T15:14:12.121Z,25.43
2022-07-29T15:16:14.226Z,25.33
2022-07-29T15:18:15.987Z,25.37
2022-07-29T15:20:27.875Z,25.54
2022-07-29T15:22:29.804Z,25.86
2022-07-29T15:24:32.137Z,26.02
2022-07-29T15:26:34.307Z,25.99
2022-07-29T15:28:36.624Z,25.79
2022-07-29T15:30:38.393Z,26.00
2022-07-29T15:32:40.104Z,25.85
2022-07-29T15:34:42.352Z,26.08
2022-07-29T15:36:52.510Z,26.04
2022-07-29T15:38:56.677Z,25.90
2022-07-29T15:40:58.656Z,25.73
2022-07-29T15:43:00.442Z,25.76
2022-07-29T15:45:02.364Z,25.65
2022-07-29T15:47:06.048Z,25.61
2022-07-29T15:49:08.490Z,25.66
2022-07-29T15:51:10.491Z,25.60
2022-07-29T15:53:15.096Z,25.73
2022-07-29T15:55:18.542Z,25.63
2022-07-29T15:57:23.259Z,25.76
2022-07-29T15:59:27.810Z,25.77
2022-07-29T16:01:30.761Z,25.24
2022-07-29T16:03:32.912Z,25.16
2022-07-29T16:05:36.437Z,24.85
2022-07-29T16:07:39.938Z,24.95
2022-07-29T16:09:46.243Z,24.95
2022-07-29T16:11:52.952Z,25.00
2022-07-29T16:13:54.747Z,25.14
2022-07-29T16:16:02.695Z,25.13
2022-07-29T16:18:05.399Z,25.17
2022-07-29T16:20:07.837Z,25.18
2022-07-29T16:22:10.191Z,24.92
2022-07-29T16:24:12.328Z,24.69
2022-07-29T16:26:14.282Z,24.71
2022-07-29T16:28:16.061Z,24.97
2022-07-29T16:30:18.125Z,24.81
2022-07-29T16:32:22.144Z,24.86
2022-07-29T16:34:24.308Z,24.79
2022-07-29T16:36:26.075Z,24.61
2022-07-29T16:38:27.871Z,24.55
2022-07-29T16:40:29.683Z,24.73
2022-07-29T16:42:46.162Z,24.69
2022-07-29T16:44:48.914Z,24.48
2022-07-29T16:46:51.863Z,24.55
2022-07-29T16:48:57.808Z,24.31
2022-07-29T16:50:59.695Z,24.10
2022-07-29T16:53:01.525Z,24.07
2022-07-29T16:55:04.435Z,24.07
2022-07-29T16:57:06.176Z,24.08
2022-07-29T16:59:07.927Z,24.25
2022-07-29T17:01:10.133Z,24.27
2022-07-29T17:03:12.803Z,24.24
2022-07-29T17:05:15.742Z,24.22
2022-07-29T17:07:17.768Z,24.25
2022-07-29T17:09:19.753Z,24.03
2022-07-29T17:11:21.454Z,24.04
2022-07-29T17:13:43.707Z,23.96
2022-07-29T17:15:45.464Z,23.91
2022-07-29T17:17:56.513Z,23.86
2022-07-29T17:19:58.966Z,23.77
2022-07-29T17:22:19.572Z,23.84
2022-07-29T17:24:21.459Z,23.83
2022-07-29T17:26:23.320Z,23.70
2022-07-29T17:28:25.053Z,23.52
2022-07-29T17:30:26.978Z,23.62
2022-07-29T17:32:28.969Z,23.58
2022-07-29T17:34:31.142Z,23.65
2022-07-29T17:36:33.071Z,23.48
2022-07-29T17:38:35.525Z,23.50
2022-07-29T17:40:37.273Z,23.51
2022-07-29T17:42:39.045Z,23.38
2022-07-29T17:44:41.613Z,23.28
2022-07-29T17:46:43.392Z,23.32
2022-07-29T17:48:45.556Z,23.24
2022-07-29T17:50:48.311Z,23.15
2022-07-29T17:52:50.063Z,23.02
2022-07-29T17:54:51.846Z,23.03
2022-07-29T17:56:53.846Z,23.01
2022-07-29T17:58:55.625Z,23.02
2022-07-29T18:00:58.797Z,22.97
2022-07-29T18:03:00.857Z,22.82
2022-07-29T18:05:02.645Z,22.85
2022-07-29T18:07:04.460Z,22.84
2022-07-29T18:09:06.262Z,22.70
2022-07-29T18:11:08.078Z,22.70
2022-07-29T18:13:16.837Z,22.66
2022-07-29T18:15:18.857Z,22.65
2022-07-29T18:17:20.607Z,22.52
2022-07-29T18:19:22.397Z,22.54
2022-07-29T18:21:37.601Z,22.44
2022-07-29T18:23:46.067Z,22.50
2022-07-29T18:25:47.989Z,22.37
2022-07-29T18:27:50.482Z,22.17
2022-07-29T18:29:55.285Z,22.28
2022-07-29T18:31:57.079Z,22.18
2022-07-29T18:34:00.157Z,22.14
2022-07-29T18:36:11.195Z,21.97
2022-07-29T18:38:14.130Z,22.04
2022-07-29T18:40:16.006Z,21.55
2022-07-29T18:42:17.727Z,21.94
2022-07-29T18:44:20.374Z,21.83
2022-07-29T18:46:24.225Z,21.79
2022-07-29T18:48:27.446Z,21.72
2022-07-29T18:50:30.034Z,21.50
2022-07-29T18:52:32.230Z,21.57
2022-07-29T18:54:34.217Z,21.54
2022-07-29T18:56:36.463Z,21.53
2022-07-29T18:58:38.410Z,21.49
2022-07-29T19:00:40.226Z,21.41
2022-07-29T19:02:43.473Z,21.16
2022-07-29T19:04:45.380Z,21.22
2022-07-29T19:06:47.194Z,21.24
2022-07-29T19:08:48.925Z,21.20
2022-07-29T19:10:50.886Z,21.07
2022-07-29T19:12:52.683Z,21.08
2022-07-29T19:14:54.558Z,21.05
2022-07-29T19:16:56.681Z,20.79
2022-07-29T19:18:58.694Z,20.81
2022-07-29T19:21:00.478Z,20.71
2022-07-29T19:23:02.398Z,20.61
2022-07-29T19:25:04.522Z,20.57
2022-07-29T19:27:06.442Z,20.30
2022-07-29T19:29:09.222Z,20.36
2022-07-29T19:31:11.025Z,20.22
2022-07-29T19:33:12.816Z,20.11
2022-07-29T19:35:14.698Z,19.98
2022-07-29T19:37:16.448Z,19.77
2022-07-29T19:39:18.212Z,19.63
2022-07-29T19:41:36.639Z,19.69
2022-07-29T19:43:52.030Z,19.64
2022-07-29T19:45:54.816Z,19.49
2022-07-29T19:48:01.329Z,19.57
2022-07-29T19:50:03.938Z,19.44
2022-07-29T19:52:06.081Z,19.41
2022-07-29T19:54:08.208Z,19.39
2022-07-29T19:56:11.289Z,19.22
2022-07-29T19:58:13.097Z,19.30
2022-07-29T20:00:16.283Z,19.43
2022-07-29T20:02:18.481Z,19.35
2022-07-29T20:04:20.343Z,19.60
2022-07-29T20:06:22.117Z,19.66
2022-07-29T20:08:23.986Z,19.58
2022-07-29T20:10:26.042Z,19.76
2022-07-29T20:12:27.987Z,19.68
2022-07-29T20:14:29.869Z,19.62
2022-07-29T20:16:32.243Z,19.76
2022-07-29T20:18:35.078Z,19.73
2022-07-29T20:20:36.856Z,19.44
2022-07-29T20:22:38.678Z,19.38
2022-07-29T20:24:40.800Z,19.53
2022-07-29T20:26:43.791Z,19.46
2022-07-29T20:28:49.313Z,19.61
2022-07-29T20:30:51.761Z,19.53
2022-07-29T20:32:53.526Z,19.43
2022-07-29T20:34:55.246Z,19.53
2022-07-29T20:36:58.498Z,19.53
2022-07-29T20:39:00.534Z,19.43
2022-07-29T20:41:02.282Z,19.48
2022-07-29T20:43:04.176Z,19.32
2022-07-29T20:45:08.720Z,19.38
2022-07-29T20:47:10.608Z,19.39
2022-07-29T20:49:12.934Z,19.30
2022-07-29T20:51:14.907Z,19.36
2022-07-29T20:53:16.620Z,19.27
2022-07-29T20:55:18.622Z,19.24
2022-07-29T20:57:38.690Z,19.26
2022-07-29T20:59:45.586Z,19.16
2022-07-29T21:01:47.751Z,19.28
2022-07-29T21:03:49.632Z,19.31
2022-07-29T21:05:58.078Z,19.14
2022-07-29T21:07:59.961Z,19.21
2022-07-29T21:10:01.775Z,19.26
2022-07-29T21:12:03.935Z,19.26
2022-07-29T21:14:05.813Z,19.21
2022-07-29T21:16:09.684Z,19.14
2022-07-29T21:18:11.751Z,19.08
2022-07-29T21:20:18.422Z,19.11
2022-07-29T21:22:20.643Z,19.13
2022-07-29T21:24:22.344Z,19.04
2022-07-29T21:26:24.356Z,18.97
2022-07-29T21:28:26.242Z,19.05
2022-07-29T21:30:28.071Z,19.02
2022-07-29T21:32:30.621Z,18.84
2022-07-29T21:34:32.559Z,18.84
2022-07-29T21:36:49.622Z,18.66
2022-07-29T21:38:51.735Z,18.83
2022-07-29T21:40:53.791Z,18.78
2022-07-29T21:42:55.541Z,18.73
2022-07-29T21:44:57.565Z,18.63
2022-07-29T21:46:59.455Z,18.62
2022-07-29T21:49:01.359Z,18.61
2022-07-29T21:51:03.239Z,18.60
2022-07-29T21:53:05.164Z,18.66
2022-07-29T21:55:07.948Z,18.68
2022-07-29T21:57:12.529Z,18.73
2022-07-29T21:59:14.324Z,18.61
2022-07-29T22:01:16.180Z,18.70
2022-07-29T22:03:18.147Z,18.61
2022-07-29T22:05:20.619Z,18.55
2022-07-29T22:07:22.354Z,18.56
2022-07-29T22:09:27.865Z,18.63
2022-07-29T22:11:29.655Z,18.52
2022-07-29T22:13:31.450Z,18.49
2022-07-29T22:15:33.508Z,18.47
2022-07-29T22:17:35.266Z,18.50
2022-07-29T22:19:37.006Z,18.57
2022-07-29T22:21:39.330Z,18.57
2022-07-29T22:23:41.462Z,18.45
2022-07-29T22:25:43.229Z,18.22
2022-07-29T22:27:45.284Z,18.31
2022-07-29T22:29:47.104Z,18.21
2022-07-29T22:31:49.108Z,18.18
2022-07-29T22:33:51.932Z,18.10
2022-07-29T22:35:53.640Z,18.27
2022-07-29T22:37:55.358Z,18.04
2022-07-29T22:39:57.546Z,18.04
2022-07-29T22:41:59.251Z,18.02
2022-07-29T22:44:01.106Z,18.01
2022-07-29T22:46:03.337Z,18.06
2022-07-29T22:48:05.622Z,18.23
2022-07-29T22:50:07.759Z,18.17
2022-07-29T22:52:09.751Z,18.20
2022-07-29T22:54:11.486Z,18.29
2022-07-29T22:56:13.511Z,18.24
2022-07-29T22:58:15.516Z,18.18
2022-07-29T23:00:17.315Z,18.27
2022-07-29T23:02:19.053Z,18.25
2022-07-29T23:04:21.111Z,18.34
2022-07-29T23:06:22.906Z,18.14
2022-07-29T23:08:24.608Z,18.19
2022-07-29T23:10:26.695Z,18.15
2022-07-29T23:12:28.397Z,18.03
2022-07-29T23:14:30.156Z,18.19
2022-07-29T23:16:32.239Z,18.06
2022-07-29T23:18:34.702Z,18.31
2022-07-29T23:20:36.559Z,18.27
2022-07-29T23:22:38.489Z,18.14
2022-07-29T23:24:40.199Z,18.13
2022-07-29T23:26:42.654Z,18.13
2022-07-29T23:28:45.329Z,18.14
2022-07-29T23:30:47.209Z,18.12
2022-07-29T23:32:49.040Z,18.04
2022-07-29T23:34:50.938Z,18.02
2022-07-29T23:36:52.695Z,18.18
2022-07-29T23:38:54.427Z,18.02
2022-07-29T23:40:56.613Z,18.19
2022-07-29T23:42:58.380Z,18.39
2022-07-29T23:45:00.157Z,18.45
2022-07-29T23:47:02.656Z,18.17
2022-07-29T23:49:04.682Z,18.32
2022-07-29T23:51:07.550Z,18.20
2022-07-29T23:53:09.498Z,18.01
2022-07-29T23:55:36.331Z,18.24
2022-07-29T23:57:33.968Z,18.19
2022-07-29T23:59:35.760Z,18.30
